Time;durP1;ratioP1;P1;durP2;ratioP2;P2;SDS_P1;SDS_P2;PMS_P1;PMS_P2;Temp;Humidity;BMP_temperature;BMP_pressure;BME280_temperature;BME280_humidity;BME280_pressure;Samples;Min_cycle;Max_cycle;Signal;HPM_P1;HPM_P2
2020/12/09 00:01:52;;;;;;;;;;;;;;;1.00;67.33;101170.02;1792258;79;20242;-61
2020/12/09 00:04:21;;;;;;;;;;;;;;;0.91;67.64;101170.52;1794920;80;20254;-61
2020/12/09 00:06:49;;;;;;;;;;;;;;;0.90;67.55;101172.63;1781281;80;21200;-61
2020/12/09 00:09:18;;;;;;;;;;;;;;;0.92;67.71;101172.28;1766740;80;20230;-61
2020/12/09 00:11:46;;;;;;;;;;;;;;;0.97;67.89;101176.37;1777316;78;20265;-61
2020/12/09 00:14:14;;;;;;;;;;;;;;;0.98;67.97;101176.42;1785602;80;20307;-61
2020/12/09 00:16:42;;;;;;;;;;;;;;;1.03;67.80;101177.48;1790456;78;20246;-61
2020/12/09 00:19:09;;;;;;;;;;;;;;;1.09;67.72;101176.87;1780576;80;21426;-61
2020/12/09 00:21:36;;;;;;;;;;;;;;;1.05;67.58;101168.50;1778323;78;20232;-61
2020/12/09 00:24:03;;;;;;;;;;;;;;;1.02;67.63;101179.61;1782662;78;20218;-61
2020/12/09 00:26:31;;;;;;;;;;;;;;;1.01;67.87;101177.84;1762375;80;20316;-61
2020/12/09 00:28:59;;;;;;;;;;;;;;;1.08;67.79;101180.68;1787836;78;20233;-62
2020/12/09 00:31:30;;;;;;;;;;;;;;;1.10;67.71;101180.33;1779854;78;21412;-61
2020/12/09 00:33:58;;;;;;;;;;;;;;;1.11;67.78;101181.67;1773002;80;20222;-61
2020/12/09 00:36:25;;;;;;;;;;;;;;;1.10;67.69;101179.94;1794012;80;20225;-61
2020/12/09 00:38:53;;;;;;;;;;;;;;;1.12;67.72;101176.95;1789232;79;20242;-61
2020/12/09 00:41:22;;;;;;;;;;;;;;;1.15;67.65;101181.39;1788889;80;20241;-61
2020/12/09 00:43:50;;;;;;;;;;;;;;;1.16;67.71;101183.16;1792581;80;21354;-61
2020/12/09 00:46:19;;;;;;;;;;;;;;;1.18;67.67;101177.62;1783546;80;20253;-61
2020/12/09 00:48:47;;;;;;;;;;;;;;;1.20;67.67;101182.47;1777131;78;20222;-61
2020/12/09 00:51:17;;;;;;;;;;;;;;;1.22;67.67;101178.62;1781441;80;20250;-61
2020/12/09 00:53:45;;;;;;;;;;;;;;;1.22;67.70;101177.33;1794933;78;20233;-61
2020/12/09 00:56:14;;;;;;;;;;;;;;;1.21;67.63;101176.84;1794395;80;21253;-61
2020/12/09 00:58:41;;;;;;;;;;;;;;;1.23;67.71;101177.41;1794628;78;20210;-61
2020/12/09 01:01:10;;;;;;;;;;;;;;;1.24;67.73;101165.30;1793234;78;20214;-61
2020/12/09 01:03:39;;;;;;;;;;;;;;;1.25;67.79;101178.34;1791120;80;20258;-61
2020/12/09 01:06:06;;;;;;;;;;;;;;;1.27;67.77;101183.58;1786824;78;20238;-61
2020/12/09 01:08:34;;;;;;;;;;;;;;;1.28;67.80;101178.47;1792304;80;21347;-61
2020/12/09 01:11:02;;;;;;;;;;;;;;;1.28;67.83;101177.17;1795590;78;20250;-61
2020/12/09 01:13:30;;;;;;;;;;;;;;;1.29;67.73;101175.05;1791366;78;20262;-61
2020/12/09 01:15:57;;;;;;;;;;;;;;;1.32;67.73;101183.34;1792289;78;20467;-61
2020/12/09 01:18:24;;;;;;;;;;;;;;;1.32;67.78;101184.25;1789686;80;20579;-61
2020/12/09 01:20:51;;;;;;;;;;;;;;;1.28;67.96;101178.86;1786462;80;22274;-61
2020/12/09 01:23:19;;;;;;;;;;;;;;;1.29;67.97;101176.34;1794861;78;20214;-61
2020/12/09 01:25:46;;;;;;;;;;;;;;;1.31;67.91;101175.09;1792208;78;20257;-61
2020/12/09 01:28:15;;;;;;;;;;;;;;;1.30;67.79;101171.63;1791671;80;20214;-61
2020/12/09 01:30:42;;;;;;;;;;;;;;;1.30;67.78;101174.62;1795730;80;20242;-61
2020/12/09 01:33:09;;;;;;;;;;;;;;;1.29;67.89;101165.06;1786026;78;21182;-61
2020/12/09 01:35:36;;;;;;;;;;;;;;;1.28;67.79;101168.48;1784314;78;20245;-61
2020/12/09 01:38:04;;;;;;;;;;;;;;;1.27;68.02;101168.02;1795513;80;20281;-61
2020/12/09 01:40:31;;;;;;;;;;;;;;;1.26;67.90;101170.14;1784651;80;20232;-61
2020/12/09 01:42:58;;;;;;;;;;;;;;;1.27;67.95;101166.32;1794434;78;20218;-61
2020/12/09 01:45:26;;;;;;;;;;;;;;;1.27;67.79;101161.13;1788978;78;21396;-61
2020/12/09 01:47:53;;;;;;;;;;;;;;;1.27;67.79;101164.12;1782613;80;20238;-61
2020/12/09 01:50:21;;;;;;;;;;;;;;;1.25;67.91;101164.08;1757759;80;20220;-62
2020/12/09 01:52:48;;;;;;;;;;;;;;;1.24;68.00;101164.91;1780625;80;20249;-61
2020/12/09 01:55:15;;;;;;;;;;;;;;;1.23;68.10;101164.43;1771086;80;20222;-61
2020/12/09 01:57:42;;;;;;;;;;;;;;;1.26;68.04;101171.43;1781110;80;21198;-61
2020/12/09 02:00:09;;;;;;;;;;;;;;;1.27;68.05;101166.32;1778450;80;20224;-61
2020/12/09 02:02:38;;;;;;;;;;;;;;;1.28;67.90;101166.80;1784859;80;20230;-61
2020/12/09 02:05:06;;;;;;;;;;;;;;;1.29;67.86;101170.25;1788126;80;20222;-61
2020/12/09 02:07:33;;;;;;;;;;;;;;;1.28;67.89;101167.19;1789834;80;20222;-61
2020/12/09 02:10:03;;;;;;;;;;;;;;;1.30;67.88;101178.11;1780749;80;21339;-61
2020/12/09 02:12:33;;;;;;;;;;;;;;;1.27;67.93;101169.31;1768524;80;20522;-61
2020/12/09 02:15:00;;;;;;;;;;;;;;;1.27;68.00;101164.12;1788675;80;20214;-61
2020/12/09 02:17:27;;;;;;;;;;;;;;;1.27;68.04;101166.72;1791131;80;20265;-61
2020/12/09 02:19:54;;;;;;;;;;;;;;;1.30;68.02;101169.03;1787160;80;20260;-61
2020/12/09 02:22:21;;;;;;;;;;;;;;;1.30;67.85;101166.44;1790932;80;21451;-61
2020/12/09 02:24:48;;;;;;;;;;;;;;;1.27;67.82;101167.62;1786633;80;20218;-62
2020/12/09 02:27:16;;;;;;;;;;;;;;;1.27;67.91;101171.91;1787825;80;20219;-62
2020/12/09 02:29:43;;;;;;;;;;;;;;;1.26;67.79;101176.22;1783442;80;20273;-61
2020/12/09 02:32:10;;;;;;;;;;;;;;;1.24;67.85;101178.27;1782388;80;20242;-61
2020/12/09 02:34:38;;;;;;;;;;;;;;;1.23;67.90;101173.52;1764922;80;23578;-61
2020/12/09 02:37:05;;;;;;;;;;;;;;;1.24;67.87;101175.67;1770550;80;20288;-61
2020/12/09 02:39:36;;;;;;;;;;;;;;;1.20;67.84;101175.98;1766054;80;20242;-61
2020/12/09 02:42:06;;;;;;;;;;;;;;;1.23;67.59;101177.41;1789997;80;20234;-61
2020/12/09 02:44:35;;;;;;;;;;;;;;;1.17;67.73;101171.55;1789552;80;20305;-61
2020/12/09 02:47:02;;;;;;;;;;;;;;;1.25;67.57;101166.67;1777493;80;21195;-61
2020/12/09 02:49:30;;;;;;;;;;;;;;;1.25;67.58;101162.78;1776996;80;20210;-61
2020/12/09 02:51:57;;;;;;;;;;;;;;;1.26;67.73;101163.25;1788024;80;20246;-61
2020/12/09 02:54:24;;;;;;;;;;;;;;;1.27;67.76;101167.62;1782632;80;20278;-61
2020/12/09 02:56:52;;;;;;;;;;;;;;;1.27;67.79;101171.51;1774303;80;20252;-61
2020/12/09 02:59:19;;;;;;;;;;;;;;;1.27;67.58;101174.10;1758086;80;21148;-61
2020/12/09 03:01:47;;;;;;;;;;;;;;;1.27;67.68;101177.99;1780380;80;20222;-61
2020/12/09 03:04:15;;;;;;;;;;;;;;;1.26;67.70;101180.11;1764366;80;20246;-62
2020/12/09 03:06:42;;;;;;;;;;;;;;;1.22;67.72;101180.81;1784588;80;20238;-61
2020/12/09 03:09:10;;;;;;;;;;;;;;;1.22;67.83;101183.41;1771906;80;20306;-61
2020/12/09 03:11:37;;;;;;;;;;;;;;;1.23;67.83;101180.39;1776131;80;21340;-62
2020/12/09 03:14:04;;;;;;;;;;;;;;;1.22;67.85;101185.10;1767238;80;20271;-62
2020/12/09 03:16:32;;;;;;;;;;;;;;;1.24;67.87;101193.44;1773559;80;20217;-61
2020/12/09 03:18:59;;;;;;;;;;;;;;;1.25;67.83;101193.00;1779395;80;20234;-61
2020/12/09 03:21:26;;;;;;;;;;;;;;;1.24;67.75;101193.44;1763152;80;20238;-61
2020/12/09 03:23:53;;;;;;;;;;;;;;;1.26;67.71;101201.26;1776921;80;21648;-61
2020/12/09 03:26:20;;;;;;;;;;;;;;;1.31;67.69;101203.63;1766086;80;20219;-61
2020/12/09 03:28:48;;;;;;;;;;;;;;;1.31;67.60;101193.25;1780673;80;20247;-61
2020/12/09 03:31:15;;;;;;;;;;;;;;;1.32;67.58;101194.62;1766928;80;20234;-61
2020/12/09 03:33:44;;;;;;;;;;;;;;;1.32;67.53;101191.12;1773603;80;20246;-61
2020/12/09 03:36:11;;;;;;;;;;;;;;;1.31;67.45;101188.96;1771868;80;21139;-61
2020/12/09 03:38:38;;;;;;;;;;;;;;;1.36;67.40;101190.42;1772298;80;20254;-61
2020/12/09 03:41:05;;;;;;;;;;;;;;;1.33;67.49;101189.00;1778724;80;20265;-62
2020/12/09 03:43:33;;;;;;;;;;;;;;;1.30;67.44;101184.59;1771661;80;20249;-61
2020/12/09 03:46:00;;;;;;;;;;;;;;;1.29;67.42;101191.00;1765058;80;20282;-61
2020/12/09 03:48:27;;;;;;;;;;;;;;;1.27;67.44;101195.25;1775266;80;21807;-61
2020/12/09 03:50:54;;;;;;;;;;;;;;;1.26;67.53;101193.08;1781764;80;20528;-61
2020/12/09 03:53:21;;;;;;;;;;;;;;;1.27;67.47;101203.03;1763051;80;20245;-61
2020/12/09 03:55:49;;;;;;;;;;;;;;;1.25;67.58;101200.78;1765763;80;20251;-61
2020/12/09 03:58:16;;;;;;;;;;;;;;;1.26;67.70;101211.23;1783911;80;20246;-61
2020/12/09 04:00:44;;;;;;;;;;;;;;;1.28;67.53;101211.28;1781681;80;21375;-61
2020/12/09 04:03:11;;;;;;;;;;;;;;;1.28;67.51;101211.28;1788763;80;20265;-56
2020/12/09 04:05:38;;;;;;;;;;;;;;;1.30;67.34;101206.64;1792088;80;20496;-55
2020/12/09 04:08:06;;;;;;;;;;;;;;;1.25;67.39;101213.75;1794960;79;20242;-56
2020/12/09 04:10:33;;;;;;;;;;;;;;;1.19;67.36;101214.41;1777150;80;20248;-56
2020/12/09 04:13:01;;;;;;;;;;;;;;;1.18;67.47;101213.94;1785939;80;21333;-56
2020/12/09 04:15:28;;;;;;;;;;;;;;;1.13;67.49;101216.33;1790616;79;20241;-55
2020/12/09 04:17:55;;;;;;;;;;;;;;;1.12;67.55;101203.31;1767809;80;20266;-56
2020/12/09 04:20:22;;;;;;;;;;;;;;;1.09;67.59;101212.27;1777553;80;20547;-56
2020/12/09 04:22:50;;;;;;;;;;;;;;;1.10;67.62;101212.74;1771304;80;20242;-56
2020/12/09 04:25:17;;;;;;;;;;;;;;;1.18;67.44;101213.94;1791734;79;22089;-55
2020/12/09 04:27:44;;;;;;;;;;;;;;;1.27;67.32;101221.19;1785008;79;20241;-56
2020/12/09 04:30:11;;;;;;;;;;;;;;;1.31;67.14;101225.67;1785614;80;20254;-55
2020/12/09 04:32:39;;;;;;;;;;;;;;;1.32;67.23;101224.84;1793979;80;20242;-56
2020/12/09 04:35:06;;;;;;;;;;;;;;;1.31;67.27;101226.58;1788928;80;20215;-56
2020/12/09 04:37:33;;;;;;;;;;;;;;;1.35;67.27;101230.16;1785762;78;20562;-58
2020/12/09 04:40:01;;;;;;;;;;;;;;;1.35;67.17;101227.56;1789030;78;20242;-56
2020/12/09 04:42:28;;;;;;;;;;;;;;;1.36;67.21;101229.73;1789663;80;20229;-56
2020/12/09 04:44:55;;;;;;;;;;;;;;;1.37;67.22;101228.91;1771876;80;20353;-56
2020/12/09 04:47:31;;;;;;;;;;;;;;;1.38;67.06;101231.58;1762903;80;20249;-56
2020/12/09 04:50:07;;;;;;;;;;;;;;;1.33;67.33;101234.40;1750117;81;21352;-56
2020/12/09 04:52:49;;;;;;;;;;;;;;;1.27;67.59;101234.16;1764305;80;20260;-56
2020/12/09 04:55:17;;;;;;;;;;;;;;;1.26;67.57;101236.27;1768670;80;20255;-56
2020/12/09 04:58:14;;;;;;;;;;;;;;;1.21;67.86;101240.39;1780393;80;21076;-56
2020/12/09 05:00:45;;;;;;;;;;;;;;;1.16;68.10;101238.92;1768212;79;20243;-55
2020/12/09 05:03:17;;;;;;;;;;;;;;;1.23;67.89;101238.34;1787899;80;21649;-55
2020/12/09 05:05:46;;;;;;;;;;;;;;;1.22;67.85;101224.91;1785477;80;20286;-56
2020/12/09 05:08:20;;;;;;;;;;;;;;;1.23;67.91;101227.08;1768422;80;20280;-56
2020/12/09 05:10:49;;;;;;;;;;;;;;;1.26;67.89;101234.58;1774750;79;20241;-55
2020/12/09 05:13:21;;;;;;;;;;;;;;;1.32;67.58;101236.13;1783970;79;20250;-57
2020/12/09 05:15:56;;;;;;;;;;;;;;;1.32;67.77;101237.42;1784398;80;21444;-56
2020/12/09 05:18:37;;;;;;;;;;;;;;;1.37;67.99;101235.00;1785701;80;20246;-56
2020/12/09 05:21:17;;;;;;;;;;;;;;;1.39;67.73;101234.64;1762527;80;20296;-56
2020/12/09 05:23:49;;;;;;;;;;;;;;;1.53;67.36;101241.66;1775211;80;20233;-56
2020/12/09 05:26:30;;;;;;;;;;;;;;;1.26;67.65;101247.95;1775348;79;20272;-55
2020/12/09 05:29:06;;;;;;;;;;;;;;;1.19;67.78;101245.10;1778299;80;21781;-56
2020/12/09 05:31:35;;;;;;;;;;;;;;;1.09;68.01;101247.27;1781080;80;20222;-55
2020/12/09 05:34:12;;;;;;;;;;;;;;;1.06;68.25;101248.05;1778225;80;20454;-56
2020/12/09 05:36:46;;;;;;;;;;;;;;;1.09;68.53;101258.55;1762380;80;20279;-57
2020/12/09 05:39:14;;;;;;;;;;;;;;;1.13;68.54;101260.84;1777715;80;20477;-57
2020/12/09 05:41:41;;;;;;;;;;;;;;;1.16;68.36;101260.97;1788520;79;21862;-56
2020/12/09 05:44:08;;;;;;;;;;;;;;;1.23;68.73;101265.58;1787660;80;20296;-55
2020/12/09 05:46:56;;;;;;;;;;;;;;;1.28;68.35;101263.16;1787196;79;20238;-56
2020/12/09 05:49:26;;;;;;;;;;;;;;;1.27;68.27;101268.77;1783023;80;20269;-55
2020/12/09 05:52:13;;;;;;;;;;;;;;;1.28;68.55;101271.84;1779990;79;20238;-56
2020/12/09 05:54:43;;;;;;;;;;;;;;;1.30;68.44;101271.49;1760254;79;21228;-55
2020/12/09 05:57:12;;;;;;;;;;;;;;;1.27;68.12;101271.77;1776843;80;20234;-55
2020/12/09 05:59:46;;;;;;;;;;;;;;;1.27;68.46;101273.06;1787982;79;20230;-55
2020/12/09 06:02:18;;;;;;;;;;;;;;;1.28;68.33;101274.44;1786051;79;20234;-55
2020/12/09 06:05:02;;;;;;;;;;;;;;;1.27;68.34;101273.96;1777247;80;20238;-55
2020/12/09 06:07:31;;;;;;;;;;;;;;;1.24;68.18;101272.54;1769546;80;21345;-55
2020/12/09 06:10:04;;;;;;;;;;;;;;;1.21;68.25;101271.12;1775775;80;20266;-55
2020/12/09 06:12:54;;;;;;;;;;;;;;;1.09;68.64;101270.61;1787699;80;20245;-56
2020/12/09 06:15:24;;;;;;;;;;;;;;;1.11;68.69;101275.02;1787604;80;20254;-56
2020/12/09 06:18:07;;;;;;;;;;;;;;;1.06;68.80;101271.38;1766260;80;20242;-56
2020/12/09 06:20:35;;;;;;;;;;;;;;;1.08;69.01;101274.92;1753251;79;21469;-55
2020/12/09 06:23:05;;;;;;;;;;;;;;;1.12;69.13;101272.03;1784951;80;20265;-55
2020/12/09 06:25:32;;;;;;;;;;;;;;;1.22;68.60;101278.08;1784408;79;20250;-55
2020/12/09 06:28:07;;;;;;;;;;;;;;;1.24;68.79;101282.02;1777984;79;20216;-55
2020/12/09 06:30:35;;;;;;;;;;;;;;;1.24;68.51;101284.21;1770132;80;20278;-55
2020/12/09 06:33:02;;;;;;;;;;;;;;;1.24;68.40;101290.70;1783517;80;21242;-56
2020/12/09 06:35:29;;;;;;;;;;;;;;;1.25;68.22;101290.27;1779275;80;20254;-55
2020/12/09 06:38:12;;;;;;;;;;;;;;;1.21;68.20;101285.38;1781353;79;20224;-56
2020/12/09 06:40:40;;;;;;;;;;;;;;;1.22;68.09;101282.36;1771234;80;20246;-55
2020/12/09 06:43:11;;;;;;;;;;;;;;;1.21;68.24;101285.38;1757315;80;20234;-56
2020/12/09 06:45:44;;;;;;;;;;;;;;;1.23;68.29;101286.72;1774284;80;21203;-55
2020/12/09 06:48:15;;;;;;;;;;;;;;;1.22;68.13;101291.04;1770301;80;20248;-56
2020/12/09 06:50:45;;;;;;;;;;;;;;;1.21;68.05;101287.07;1771064;80;20238;-56
2020/12/09 06:53:17;;;;;;;;;;;;;;;1.08;68.30;101284.00;1779234;80;20272;-55
2020/12/09 06:55:45;;;;;;;;;;;;;;;1.10;68.61;101287.94;1769979;80;20270;-55
2020/12/09 06:58:23;;;;;;;;;;;;;;;1.16;68.81;101291.66;1777161;80;22737;-56
2020/12/09 07:01:02;;;;;;;;;;;;;;;1.21;68.60;101294.45;1764894;80;20246;-55
2020/12/09 07:03:30;;;;;;;;;;;;;;;1.22;68.47;101285.86;1783546;80;20245;-55
2020/12/09 07:05:57;;;;;;;;;;;;;;;1.16;68.53;101282.58;1783425;80;20237;-55
2020/12/09 07:08:24;;;;;;;;;;;;;;;1.01;68.94;101286.73;1780966;80;20223;-55
2020/12/09 07:10:52;;;;;;;;;;;;;;;0.98;69.12;101285.30;1773446;80;21450;-55
2020/12/09 07:13:19;;;;;;;;;;;;;;;0.93;69.07;101289.41;1776488;80;20246;-55
2020/12/09 07:15:50;;;;;;;;;;;;;;;0.91;69.22;101281.98;1785620;80;20273;-55
2020/12/09 07:18:17;;;;;;;;;;;;;;;0.91;69.24;101289.75;1781970;80;20250;-55
2020/12/09 07:20:48;;;;;;;;;;;;;;;0.93;69.27;101287.24;1768539;80;20295;-55
2020/12/09 07:23:16;;;;;;;;;;;;;;;0.97;69.14;101278.78;1774162;80;21368;-55
2020/12/09 07:25:43;;;;;;;;;;;;;;;1.03;69.06;101269.96;1783106;80;20238;-55
2020/12/09 07:28:11;;;;;;;;;;;;;;;1.07;68.94;101270.95;1773193;80;20233;-56
2020/12/09 07:30:38;;;;;;;;;;;;;;;1.01;69.14;101272.47;1761343;80;20252;-56
2020/12/09 07:33:06;;;;;;;;;;;;;;;1.04;69.21;101279.08;1755663;80;20239;-55
2020/12/09 07:35:33;;;;;;;;;;;;;;;1.32;68.57;101278.02;1776168;80;21187;-55
2020/12/09 07:38:00;;;;;;;;;;;;;;;1.33;68.45;101279.37;1754642;80;20272;-55
2020/12/09 07:40:33;;;;;;;;;;;;;;;1.31;68.67;101285.33;1749710;80;20235;-56
2020/12/09 07:43:09;;;;;;;;;;;;;;;1.25;68.95;101288.58;1783722;80;20234;-55
2020/12/09 07:45:40;;;;;;;;;;;;;;;1.27;69.06;101283.04;1766777;80;20308;-57
2020/12/09 07:48:09;;;;;;;;;;;;;;;1.32;69.02;101281.91;1760223;80;21453;-56
2020/12/09 07:50:37;;;;;;;;;;;;;;;1.37;69.01;101285.97;1768144;80;20233;-55
2020/12/09 07:53:07;;;;;;;;;;;;;;;1.44;68.92;101286.30;1761894;80;20244;-56
2020/12/09 07:55:34;;;;;;;;;;;;;;;1.47;68.95;101293.31;1765810;80;20223;-55
2020/12/09 07:58:07;;;;;;;;;;;;;;;1.50;68.96;101300.34;1777329;80;20524;-55
2020/12/09 08:00:44;;;;;;;;;;;;;;;1.50;68.91;101301.22;1777631;80;22274;-55
2020/12/09 08:03:25;;;;;;;;;;;;;;;1.52;68.89;101301.30;1767854;80;20215;-55
2020/12/09 08:05:54;;;;;;;;;;;;;;;1.54;68.82;101298.35;1783919;80;20463;-55
2020/12/09 08:08:22;;;;;;;;;;;;;;;1.55;68.69;101294.50;1772893;80;20239;-55
2020/12/09 08:10:51;;;;;;;;;;;;;;;1.55;68.48;101296.19;1776309;80;20241;-56
2020/12/09 08:13:25;;;;;;;;;;;;;;;1.56;68.46;101297.97;1782556;80;21191;-55
2020/12/09 08:16:13;;;;;;;;;;;;;;;1.58;68.52;101291.13;1772222;80;20513;-56
2020/12/09 08:18:40;;;;;;;;;;;;;;;1.59;68.42;101291.20;1787119;80;20242;-55
2020/12/09 08:21:11;;;;;;;;;;;;;;;1.61;68.45;101291.25;1766609;80;20250;-55
2020/12/09 08:23:40;;;;;;;;;;;;;;;1.61;68.47;101297.34;1786576;80;20230;-55
2020/12/09 08:26:08;;;;;;;;;;;;;;;1.62;68.48;101299.11;1779193;80;21369;-55
2020/12/09 08:28:36;;;;;;;;;;;;;;;1.67;68.49;101301.00;1786061;80;20273;-55
2020/12/09 08:31:13;;;;;;;;;;;;;;;1.67;68.52;101304.90;1772791;80;20237;-55
2020/12/09 08:33:40;;;;;;;;;;;;;;;1.81;68.21;101305.00;1783016;80;20241;-55
2020/12/09 08:36:08;;;;;;;;;;;;;;;1.90;68.10;101309.68;1773787;80;20222;-55
2020/12/09 08:38:38;;;;;;;;;;;;;;;1.82;68.12;101306.77;1778525;80;21238;-55
2020/12/09 08:41:09;;;;;;;;;;;;;;;1.73;68.34;101295.63;1772934;80;20225;-55
2020/12/09 08:43:38;;;;;;;;;;;;;;;1.72;68.39;101304.67;1770538;80;20245;-55
2020/12/09 08:46:06;;;;;;;;;;;;;;;1.91;67.98;101306.26;1788603;80;20266;-55
2020/12/09 08:48:35;;;;;;;;;;;;;;;1.99;67.59;101300.05;1775898;80;37947;-55
2020/12/09 08:51:02;;;;;;;;;;;;;;;2.01;67.46;101295.80;1766472;80;21365;-55
2020/12/09 08:53:29;;;;;;;;;;;;;;;1.99;67.71;101299.62;1791156;80;20246;-55
2020/12/09 08:55:57;;;;;;;;;;;;;;;1.92;67.86;101306.30;1760126;80;20252;-55
2020/12/09 08:58:24;;;;;;;;;;;;;;;1.98;67.81;101304.77;1791931;80;20234;-55
2020/12/09 09:00:52;;;;;;;;;;;;;;;1.95;67.97;101304.25;1782361;80;20232;-56
2020/12/09 09:03:21;;;;;;;;;;;;;;;1.99;67.87;101307.41;1784083;80;21202;-55
2020/12/09 09:05:53;;;;;;;;;;;;;;;2.02;67.81;101304.06;1785316;80;20242;-55
2020/12/09 09:08:20;;;;;;;;;;;;;;;2.06;67.69;101304.65;1787066;80;20250;-55
2020/12/09 09:10:48;;;;;;;;;;;;;;;2.02;67.79;101301.03;1794477;80;20242;-55
2020/12/09 09:13:15;;;;;;;;;;;;;;;1.96;68.01;101294.73;1788699;80;20285;-55
2020/12/09 09:15:43;;;;;;;;;;;;;;;1.89;68.27;101300.98;1788065;80;21384;-55
2020/12/09 09:18:11;;;;;;;;;;;;;;;1.89;68.32;101296.23;1789990;80;20257;-54
2020/12/09 09:20:38;;;;;;;;;;;;;;;1.91;68.37;101304.95;1775139;80;20218;-55
2020/12/09 09:23:05;;;;;;;;;;;;;;;1.93;68.34;101305.47;1785343;80;20273;-55
2020/12/09 09:25:33;;;;;;;;;;;;;;;2.04;68.07;101309.77;1784966;80;20536;-55
2020/12/09 09:28:03;;;;;;;;;;;;;;;2.01;68.18;101301.86;1780842;80;21379;-55
2020/12/09 09:30:30;;;;;;;;;;;;;;;1.97;68.13;101309.09;1761336;80;20247;-55
2020/12/09 09:32:57;;;;;;;;;;;;;;;2.03;67.94;101314.48;1785261;80;20234;-55
2020/12/09 09:35:24;;;;;;;;;;;;;;;1.98;68.14;101323.84;1775854;80;20309;-55
2020/12/09 09:37:52;;;;;;;;;;;;;;;2.07;67.99;101317.67;1774371;80;20313;-55
2020/12/09 09:40:19;;;;;;;;;;;;;;;2.07;67.83;101315.51;1785378;80;21211;-55
2020/12/09 09:42:49;;;;;;;;;;;;;;;2.08;67.79;101310.78;1786804;80;20623;-55
2020/12/09 09:45:17;;;;;;;;;;;;;;;2.12;67.72;101309.17;1790320;80;20496;-55
2020/12/09 09:47:44;;;;;;;;;;;;;;;2.13;67.73;101313.14;1783993;80;20265;-56
2020/12/09 09:50:12;;;;;;;;;;;;;;;2.10;67.79;101318.22;1785369;80;20246;-55
2020/12/09 09:52:39;;;;;;;;;;;;;;;2.12;67.75;101320.86;1785480;80;21208;-56
2020/12/09 09:55:07;;;;;;;;;;;;;;;2.11;67.74;101325.58;1775948;80;20249;-55
2020/12/09 09:57:36;;;;;;;;;;;;;;;2.13;67.63;101323.93;1763290;80;20215;-56
2020/12/09 10:00:05;;;;;;;;;;;;;;;2.11;67.59;101318.69;1783159;80;20239;-55
2020/12/09 10:02:34;;;;;;;;;;;;;;;2.13;67.60;101320.03;1780619;80;20218;-55
2020/12/09 10:05:02;;;;;;;;;;;;;;;2.15;67.42;101318.37;1781043;80;21373;-55
2020/12/09 10:07:30;;;;;;;;;;;;;;;2.20;67.38;101325.54;1773250;80;20238;-55
2020/12/09 10:10:01;;;;;;;;;;;;;;;2.17;67.46;101315.42;1773677;80;20243;-55
2020/12/09 10:12:26;;;;;;;;;;;;;;;2.13;67.60;101324.83;1771633;80;20284;-55
2020/12/09 10:14:53;;;;;;;;;;;;;;;2.10;67.59;101320.81;1770215;80;20215;-55
2020/12/09 10:17:20;;;;;;;;;;;;;;;2.00;67.98;101322.16;1788582;80;21373;-56
2020/12/09 10:19:48;;;;;;;;;;;;;;;2.03;67.95;101314.48;1776218;80;20267;-55
2020/12/09 10:22:16;;;;;;;;;;;;;;;2.19;67.38;101304.28;1784968;80;20242;-55
2020/12/09 10:24:45;;;;;;;;;;;;;;;2.19;67.35;101299.48;1770910;80;20282;-55
2020/12/09 10:27:13;;;;;;;;;;;;;;;2.20;67.37;101298.27;1765801;80;20243;-55
2020/12/09 10:29:42;;;;;;;;;;;;;;;2.26;67.23;101292.79;1778440;80;21000;-55
2020/12/09 10:32:09;;;;;;;;;;;;;;;2.31;67.17;101287.35;1770938;80;20274;-56
2020/12/09 10:34:38;;;;;;;;;;;;;;;2.34;67.11;101287.47;1775655;80;20246;-55
2020/12/09 10:37:05;;;;;;;;;;;;;;;2.36;67.05;101278.91;1777683;80;20287;-56
2020/12/09 10:39:33;;;;;;;;;;;;;;;2.37;67.08;101275.48;1770569;80;20247;-55
2020/12/09 10:42:00;;;;;;;;;;;;;;;2.37;67.00;101274.19;1775206;80;21826;-56
2020/12/09 10:44:27;;;;;;;;;;;;;;;2.23;67.08;101274.09;1780574;80;20246;-55
2020/12/09 10:46:55;;;;;;;;;;;;;;;2.22;66.94;101279.69;1778286;80;20297;-57
2020/12/09 10:49:31;;;;;;;;;;;;;;;2.31;67.03;101280.45;1776425;80;20677;-55
2020/12/09 10:51:54;;;;;;;;;;;;;;;2.47;66.63;101277.09;1758275;80;20259;-55
2020/12/09 10:54:21;;;;;;;;;;;;;;;2.48;66.52;101281.05;1783080;80;21008;-55
2020/12/09 10:56:49;;;;;;;;;;;;;;;2.50;66.49;101282.39;1730596;83;20246;-55
2020/12/09 10:59:18;;;;;;;;;;;;;;;2.51;66.49;101281.17;1739731;81;20232;-55
2020/12/09 11:01:45;;;;;;;;;;;;;;;2.52;66.33;101283.33;1733754;82;20565;-55
2020/12/09 11:04:13;;;;;;;;;;;;;;;2.50;66.24;101290.19;1735939;82;20254;-56
2020/12/09 11:06:42;;;;;;;;;;;;;;;2.48;66.37;101295.35;1720204;82;21880;-56
2020/12/09 11:09:10;;;;;;;;;;;;;;;2.38;66.57;101296.75;1737189;82;20289;-57
2020/12/09 11:11:39;;;;;;;;;;;;;;;2.36;66.36;101293.60;1722826;82;20247;-56
2020/12/09 11:14:07;;;;;;;;;;;;;;;2.33;66.49;101299.98;1735852;82;20270;-56
2020/12/09 11:16:34;;;;;;;;;;;;;;;2.30;66.60;101294.28;1743889;82;20281;-56
2020/12/09 11:19:01;;;;;;;;;;;;;;;2.30;66.58;101293.38;1720427;82;21371;-56
2020/12/09 11:21:29;;;;;;;;;;;;;;;2.41;66.31;101289.46;1728289;82;20227;-57
2020/12/09 11:23:56;;;;;;;;;;;;;;;2.31;66.46;101280.86;1728380;82;20246;-56
2020/12/09 11:26:24;;;;;;;;;;;;;;;2.42;66.09;101282.56;1735883;82;20325;-56
2020/12/09 11:28:51;;;;;;;;;;;;;;;2.50;65.85;101284.59;1739776;82;20258;-56
2020/12/09 11:31:23;;;;;;;;;;;;;;;2.41;65.92;101289.46;1733763;82;21353;-56
2020/12/09 11:33:51;;;;;;;;;;;;;;;2.37;66.05;101292.77;1726026;82;20318;-57
2020/12/09 11:36:25;;;;;;;;;;;;;;;2.35;66.02;101291.83;1732525;82;20268;-56
2020/12/09 11:38:53;;;;;;;;;;;;;;;2.35;66.11;101290.53;1737809;82;20265;-56
2020/12/09 11:41:28;;;;;;;;;;;;;;;2.34;66.02;101288.77;1745571;82;20233;-56
2020/12/09 11:43:55;;;;;;;;;;;;;;;2.35;66.01;101291.44;1744888;82;22313;-57
2020/12/09 11:46:23;;;;;;;;;;;;;;;2.36;65.91;101298.80;1720529;82;20218;-56
2020/12/09 11:48:51;;;;;;;;;;;;;;;2.35;65.99;101296.63;1721673;82;20271;-56
2020/12/09 11:51:18;;;;;;;;;;;;;;;2.35;66.04;101292.73;1724628;82;20241;-56
2020/12/09 11:53:46;;;;;;;;;;;;;;;2.34;66.04;101287.06;1722156;82;20262;-56
2020/12/09 11:56:22;;;;;;;;;;;;;;;2.30;66.17;101285.58;1733932;82;21018;-56
2020/12/09 11:58:50;;;;;;;;;;;;;;;2.33;66.13;101280.50;1760973;80;20508;-56
2020/12/09 12:01:17;;;;;;;;;;;;;;;2.34;66.16;101283.56;1786539;80;20231;-56
2020/12/09 12:03:46;;;;;;;;;;;;;;;2.33;66.13;101283.09;1770933;80;20230;-56
2020/12/09 12:06:22;;;;;;;;;;;;;;;2.33;66.11;101281.41;1779993;80;20258;-56
2020/12/09 12:08:49;;;;;;;;;;;;;;;2.34;66.23;101287.06;1776732;80;21206;-56
2020/12/09 12:11:18;;;;;;;;;;;;;;;2.39;66.22;101284.63;1780894;80;20297;-56
2020/12/09 12:13:45;;;;;;;;;;;;;;;2.40;66.17;101283.80;1775967;80;20246;-57
2020/12/09 12:16:15;;;;;;;;;;;;;;;2.42;66.09;101292.53;1780973;80;20544;-56
2020/12/09 12:18:43;;;;;;;;;;;;;;;2.43;66.01;101289.53;1776768;80;20227;-56
2020/12/09 12:21:12;;;;;;;;;;;;;;;2.43;66.09;101290.83;1766781;80;21121;-57
2020/12/09 12:23:40;;;;;;;;;;;;;;;2.46;65.93;101286.61;1779038;80;20266;-56
2020/12/09 12:26:08;;;;;;;;;;;;;;;2.42;66.13;101279.97;1782439;80;20247;-56
2020/12/09 12:28:35;;;;;;;;;;;;;;;2.43;66.15;101270.05;1782894;80;20354;-56
2020/12/09 12:31:03;;;;;;;;;;;;;;;2.41;66.22;101270.41;1779651;80;20222;-56
2020/12/09 12:33:30;;;;;;;;;;;;;;;2.40;66.23;101277.73;1785120;80;21838;-57
2020/12/09 12:35:57;;;;;;;;;;;;;;;2.39;66.28;101280.72;1778246;80;20215;-56
2020/12/09 12:38:24;;;;;;;;;;;;;;;2.46;66.12;101289.21;1780205;80;20254;-56
2020/12/09 12:40:51;;;;;;;;;;;;;;;2.44;66.06;101288.67;1770780;80;20242;-56
2020/12/09 12:43:18;;;;;;;;;;;;;;;2.48;66.06;101286.66;1786445;80;20242;-56
2020/12/09 12:45:46;;;;;;;;;;;;;;;2.52;65.91;101286.84;1780187;80;21377;-56
2020/12/09 12:48:13;;;;;;;;;;;;;;;2.49;65.81;101282.83;1775547;80;20241;-56
2020/12/09 12:50:40;;;;;;;;;;;;;;;2.45;66.06;101280.95;1771886;80;20214;-57
2020/12/09 12:53:08;;;;;;;;;;;;;;;2.41;66.14;101282.96;1774941;80;20238;-55
2020/12/09 12:55:36;;;;;;;;;;;;;;;2.38;66.16;101286.35;1773732;80;20236;-57
2020/12/09 12:58:04;;;;;;;;;;;;;;;2.52;66.72;101302.83;1747890;80;21200;-57